sensor_id;sensor_type;location;lat;lon;timestamp;P1;durP1;ratioP1;P2;durP2;ratioP2
35897;SDS011;21997;47.118;15.346;2023-05-07T00:00:58;6.07;;;5.47;;
35897;SDS011;21997;47.118;15.346;2023-05-07T00:03:24;8.00;;;6.03;;
35897;SDS011;21997;47.118;15.346;2023-05-07T00:05:51;6.30;;;5.60;;
35897;SDS011;21997;47.118;15.346;2023-05-07T00:08:17;6.67;;;5.53;;
35897;SDS011;21997;47.118;15.346;2023-05-07T00:10:43;7.07;;;5.43;;
35897;SDS011;21997;47.118;15.346;2023-05-07T00:13:08;5.90;;;5.37;;
35897;SDS011;21997;47.118;15.346;2023-05-07T00:15:34;7.03;;;5.40;;
35897;SDS011;21997;47.118;15.346;2023-05-07T00:17:59;6.30;;;5.70;;
35897;SDS011;21997;47.118;15.346;2023-05-07T00:20:25;7.60;;;6.27;;
35897;SDS011;21997;47.118;15.346;2023-05-07T00:22:50;6.37;;;5.77;;
35897;SDS011;21997;47.118;15.346;2023-05-07T00:25:16;7.47;;;6.67;;
35897;SDS011;21997;47.118;15.346;2023-05-07T00:27:41;6.93;;;6.23;;
35897;SDS011;21997;47.118;15.346;2023-05-07T00:30:07;6.97;;;6.30;;
35897;SDS011;21997;47.118;15.346;2023-05-07T00:32:33;7.07;;;6.40;;
35897;SDS011;21997;47.118;15.346;2023-05-07T00:34:58;6.90;;;5.97;;
35897;SDS011;21997;47.118;15.346;2023-05-07T00:37:23;7.77;;;6.30;;
35897;SDS011;21997;47.118;15.346;2023-05-07T00:39:49;6.37;;;5.70;;
35897;SDS011;21997;47.118;15.346;2023-05-07T00:42:14;5.87;;;5.27;;
35897;SDS011;21997;47.118;15.346;2023-05-07T00:44:41;5.47;;;4.97;;
35897;SDS011;21997;47.118;15.346;2023-05-07T00:47:06;7.47;;;4.77;;
35897;SDS011;21997;47.118;15.346;2023-05-07T00:49:41;5.60;;;5.10;;
35897;SDS011;21997;47.118;15.346;2023-05-07T00:52:13;5.90;;;5.23;;
35897;SDS011;21997;47.118;15.346;2023-05-07T00:54:40;5.73;;;5.10;;
35897;SDS011;21997;47.118;15.346;2023-05-07T00:57:06;5.63;;;5.13;;
35897;SDS011;21997;47.118;15.346;2023-05-07T00:59:31;5.90;;;5.30;;
35897;SDS011;21997;47.118;15.346;2023-05-07T01:01:57;6.93;;;4.57;;
35897;SDS011;21997;47.118;15.346;2023-05-07T01:04:23;4.93;;;4.43;;
35897;SDS011;21997;47.118;15.346;2023-05-07T01:06:49;5.63;;;5.13;;
35897;SDS011;21997;47.118;15.346;2023-05-07T01:09:15;5.10;;;4.57;;
35897;SDS011;21997;47.118;15.346;2023-05-07T01:11:40;5.60;;;5.10;;
35897;SDS011;21997;47.118;15.346;2023-05-07T01:14:06;5.50;;;5.00;;
35897;SDS011;21997;47.118;15.346;2023-05-07T01:16:32;6.87;;;5.40;;
35897;SDS011;21997;47.118;15.346;2023-05-07T01:18:58;5.63;;;4.97;;
35897;SDS011;21997;47.118;15.346;2023-05-07T01:21:24;3.90;;;3.53;;
35897;SDS011;21997;47.118;15.346;2023-05-07T01:23:51;6.37;;;3.90;;
35897;SDS011;21997;47.118;15.346;2023-05-07T01:26:17;3.83;;;3.50;;
35897;SDS011;21997;47.118;15.346;2023-05-07T01:28:44;4.03;;;3.63;;
35897;SDS011;21997;47.118;15.346;2023-05-07T01:31:10;3.47;;;3.17;;
35897;SDS011;21997;47.118;15.346;2023-05-07T01:33:37;6.10;;;3.93;;
35897;SDS011;21997;47.118;15.346;2023-05-07T01:36:03;5.10;;;3.60;;
35897;SDS011;21997;47.118;15.346;2023-05-07T01:38:31;4.10;;;3.10;;
35897;SDS011;21997;47.118;15.346;2023-05-07T01:40:57;3.60;;;3.27;;
35897;SDS011;21997;47.118;15.346;2023-05-07T01:43:22;3.97;;;3.43;;
35897;SDS011;21997;47.118;15.346;2023-05-07T01:45:48;3.33;;;3.03;;
35897;SDS011;21997;47.118;15.346;2023-05-07T01:48:14;6.37;;;3.60;;
35897;SDS011;21997;47.118;15.346;2023-05-07T01:50:40;4.47;;;4.00;;
35897;SDS011;21997;47.118;15.346;2023-05-07T01:53:06;5.07;;;4.10;;
35897;SDS011;21997;47.118;15.346;2023-05-07T01:55:32;4.40;;;4.00;;
35897;SDS011;21997;47.118;15.346;2023-05-07T01:57:57;4.67;;;3.90;;
35897;SDS011;21997;47.118;15.346;2023-05-07T02:00:23;4.60;;;3.90;;
35897;SDS011;21997;47.118;15.346;2023-05-07T02:02:48;4.00;;;3.47;;
35897;SDS011;21997;47.118;15.346;2023-05-07T02:05:13;4.67;;;4.07;;
35897;SDS011;21997;47.118;15.346;2023-05-07T02:07:39;3.90;;;3.33;;
35897;SDS011;21997;47.118;15.346;2023-05-07T02:10:04;3.60;;;3.30;;
35897;SDS011;21997;47.118;15.346;2023-05-07T02:12:31;3.63;;;2.63;;
35897;SDS011;21997;47.118;15.346;2023-05-07T02:14:56;4.37;;;3.47;;
35897;SDS011;21997;47.118;15.346;2023-05-07T02:17:21;15.47;;;4.27;;
35897;SDS011;21997;47.118;15.346;2023-05-07T02:19:47;4.00;;;3.60;;
35897;SDS011;21997;47.118;15.346;2023-05-07T02:22:12;4.43;;;3.40;;
35897;SDS011;21997;47.118;15.346;2023-05-07T02:24:37;3.37;;;3.03;;
35897;SDS011;21997;47.118;15.346;2023-05-07T02:27:03;3.40;;;3.10;;
35897;SDS011;21997;47.118;15.346;2023-05-07T02:29:29;3.60;;;2.43;;
35897;SDS011;21997;47.118;15.346;2023-05-07T02:31:54;3.13;;;2.63;;
35897;SDS011;21997;47.118;15.346;2023-05-07T02:34:20;2.60;;;2.40;;
35897;SDS011;21997;47.118;15.346;2023-05-07T02:36:45;3.20;;;2.13;;
35897;SDS011;21997;47.118;15.346;2023-05-07T02:39:11;2.87;;;2.30;;
35897;SDS011;21997;47.118;15.346;2023-05-07T02:41:37;3.93;;;2.70;;
35897;SDS011;21997;47.118;15.346;2023-05-07T02:44:02;2.50;;;2.30;;
35897;SDS011;21997;47.118;15.346;2023-05-07T02:46:28;2.83;;;2.50;;
35897;SDS011;21997;47.118;15.346;2023-05-07T02:48:53;4.83;;;2.30;;
35897;SDS011;21997;47.118;15.346;2023-05-07T02:51:20;3.17;;;2.37;;
35897;SDS011;21997;47.118;15.346;2023-05-07T02:53:46;2.70;;;2.30;;
35897;SDS011;21997;47.118;15.346;2023-05-07T02:56:11;5.17;;;2.63;;
35897;SDS011;21997;47.118;15.346;2023-05-07T02:58:36;6.50;;;2.97;;
35897;SDS011;21997;47.118;15.346;2023-05-07T03:01:04;2.53;;;2.33;;
35897;SDS011;21997;47.118;15.346;2023-05-07T03:03:30;2.93;;;2.63;;
35897;SDS011;21997;47.118;15.346;2023-05-07T03:05:55;4.30;;;2.63;;
35897;SDS011;21997;47.118;15.346;2023-05-07T03:08:20;2.87;;;2.23;;
35897;SDS011;21997;47.118;15.346;2023-05-07T03:10:46;2.57;;;2.07;;
35897;SDS011;21997;47.118;15.346;2023-05-07T03:13:11;3.27;;;2.77;;
35897;SDS011;21997;47.118;15.346;2023-05-07T03:15:37;3.90;;;2.83;;
35897;SDS011;21997;47.118;15.346;2023-05-07T03:18:02;5.57;;;2.53;;
35897;SDS011;21997;47.118;15.346;2023-05-07T03:20:28;2.80;;;2.57;;
35897;SDS011;21997;47.118;15.346;2023-05-07T03:22:53;3.23;;;2.90;;
35897;SDS011;21997;47.118;15.346;2023-05-07T03:25:19;4.40;;;2.53;;
35897;SDS011;21997;47.118;15.346;2023-05-07T03:27:44;3.10;;;2.77;;
35897;SDS011;21997;47.118;15.346;2023-05-07T03:30:09;3.13;;;2.83;;
35897;SDS011;21997;47.118;15.346;2023-05-07T03:32:36;3.00;;;2.63;;
35897;SDS011;21997;47.118;15.346;2023-05-07T03:35:01;3.97;;;2.80;;
35897;SDS011;21997;47.118;15.346;2023-05-07T03:37:27;5.10;;;3.43;;
35897;SDS011;21997;47.118;15.346;2023-05-07T03:39:52;4.83;;;2.83;;
35897;SDS011;21997;47.118;15.346;2023-05-07T03:42:18;4.83;;;3.00;;
35897;SDS011;21997;47.118;15.346;2023-05-07T03:44:43;3.83;;;2.97;;
35897;SDS011;21997;47.118;15.346;2023-05-07T03:47:09;3.83;;;3.43;;
35897;SDS011;21997;47.118;15.346;2023-05-07T03:49:35;3.70;;;2.83;;
35897;SDS011;21997;47.118;15.346;2023-05-07T03:52:00;3.60;;;3.17;;
35897;SDS011;21997;47.118;15.346;2023-05-07T03:54:26;3.50;;;3.20;;
35897;SDS011;21997;47.118;15.346;2023-05-07T03:56:51;4.20;;;2.87;;
35897;SDS011;21997;47.118;15.346;2023-05-07T03:59:16;4.70;;;3.17;;
35897;SDS011;21997;47.118;15.346;2023-05-07T04:01:42;3.47;;;3.10;;
35897;SDS011;21997;47.118;15.346;2023-05-07T04:04:07;4.07;;;3.20;;
35897;SDS011;21997;47.118;15.346;2023-05-07T04:06:32;3.23;;;2.93;;
35897;SDS011;21997;47.118;15.346;2023-05-07T04:08:58;3.43;;;3.13;;
35897;SDS011;21997;47.118;15.346;2023-05-07T04:11:23;4.17;;;3.27;;
35897;SDS011;21997;47.118;15.346;2023-05-07T04:13:49;5.30;;;3.13;;
35897;SDS011;21997;47.118;15.346;2023-05-07T04:16:15;4.07;;;2.83;;
35897;SDS011;21997;47.118;15.346;2023-05-07T04:18:40;3.83;;;3.40;;
35897;SDS011;21997;47.118;15.346;2023-05-07T04:21:13;4.10;;;3.37;;
35897;SDS011;21997;47.118;15.346;2023-05-07T04:23:39;3.80;;;2.90;;
35897;SDS011;21997;47.118;15.346;2023-05-07T04:26:05;3.87;;;3.10;;
35897;SDS011;21997;47.118;15.346;2023-05-07T04:28:30;3.57;;;3.20;;
35897;SDS011;21997;47.118;15.346;2023-05-07T04:30:55;3.00;;;2.80;;
35897;SDS011;21997;47.118;15.346;2023-05-07T04:33:21;3.40;;;3.00;;
35897;SDS011;21997;47.118;15.346;2023-05-07T04:35:46;3.47;;;2.67;;
35897;SDS011;21997;47.118;15.346;2023-05-07T04:38:11;3.00;;;2.70;;
35897;SDS011;21997;47.118;15.346;2023-05-07T04:40:37;4.33;;;2.70;;
35897;SDS011;21997;47.118;15.346;2023-05-07T04:43:02;4.23;;;2.67;;
35897;SDS011;21997;47.118;15.346;2023-05-07T04:45:27;3.10;;;2.63;;
35897;SDS011;21997;47.118;15.346;2023-05-07T04:47:53;3.50;;;3.20;;
35897;SDS011;21997;47.118;15.346;2023-05-07T04:50:18;3.87;;;3.03;;
35897;SDS011;21997;47.118;15.346;2023-05-07T04:52:44;5.83;;;3.10;;
35897;SDS011;21997;47.118;15.346;2023-05-07T04:55:10;4.17;;;3.07;;
35897;SDS011;21997;47.118;15.346;2023-05-07T04:57:35;3.90;;;3.00;;
35897;SDS011;21997;47.118;15.346;2023-05-07T05:00:02;2.77;;;2.50;;
35897;SDS011;21997;47.118;15.346;2023-05-07T05:02:29;4.13;;;2.80;;
35897;SDS011;21997;47.118;15.346;2023-05-07T05:04:54;5.43;;;2.60;;
35897;SDS011;21997;47.118;15.346;2023-05-07T05:07:20;5.17;;;3.03;;
35897;SDS011;21997;47.118;15.346;2023-05-07T05:09:45;3.30;;;3.00;;
35897;SDS011;21997;47.118;15.346;2023-05-07T05:12:10;3.67;;;2.87;;
35897;SDS011;21997;47.118;15.346;2023-05-07T05:14:36;4.37;;;3.13;;
35897;SDS011;21997;47.118;15.346;2023-05-07T05:17:01;4.37;;;3.10;;
35897;SDS011;21997;47.118;15.346;2023-05-07T05:19:26;4.17;;;3.17;;
35897;SDS011;21997;47.118;15.346;2023-05-07T05:21:52;4.77;;;2.70;;
35897;SDS011;21997;47.118;15.346;2023-05-07T05:24:17;4.10;;;2.80;;
35897;SDS011;21997;47.118;15.346;2023-05-07T05:26:43;3.13;;;2.60;;
35897;SDS011;21997;47.118;15.346;2023-05-07T05:29:08;3.40;;;2.83;;
35897;SDS011;21997;47.118;15.346;2023-05-07T05:31:34;3.33;;;3.03;;
35897;SDS011;21997;47.118;15.346;2023-05-07T05:34:00;3.80;;;3.30;;
35897;SDS011;21997;47.118;15.346;2023-05-07T05:36:25;3.93;;;3.00;;
35897;SDS011;21997;47.118;15.346;2023-05-07T05:38:51;4.20;;;3.10;;
35897;SDS011;21997;47.118;15.346;2023-05-07T05:41:16;4.03;;;3.13;;
35897;SDS011;21997;47.118;15.346;2023-05-07T05:43:41;3.20;;;2.90;;
35897;SDS011;21997;47.118;15.346;2023-05-07T05:46:07;3.97;;;2.77;;
35897;SDS011;21997;47.118;15.346;2023-05-07T05:48:33;3.40;;;2.70;;
35897;SDS011;21997;47.118;15.346;2023-05-07T05:50:59;3.03;;;2.53;;
35897;SDS011;21997;47.118;15.346;2023-05-07T05:53:25;3.20;;;2.90;;
35897;SDS011;21997;47.118;15.346;2023-05-07T05:55:50;3.80;;;3.03;;
35897;SDS011;21997;47.118;15.346;2023-05-07T05:58:16;3.33;;;2.73;;
35897;SDS011;21997;47.118;15.346;2023-05-07T06:00:41;5.37;;;2.90;;
35897;SDS011;21997;47.118;15.346;2023-05-07T06:03:07;3.53;;;3.13;;
35897;SDS011;21997;47.118;15.346;2023-05-07T06:05:32;3.57;;;2.90;;
35897;SDS011;21997;47.118;15.346;2023-05-07T06:07:57;4.27;;;2.97;;
35897;SDS011;21997;47.118;15.346;2023-05-07T06:10:23;4.33;;;2.63;;
35897;SDS011;21997;47.118;15.346;2023-05-07T06:12:49;3.07;;;2.73;;
35897;SDS011;21997;47.118;15.346;2023-05-07T06:15:14;4.63;;;3.00;;
35897;SDS011;21997;47.118;15.346;2023-05-07T06:17:40;4.43;;;3.10;;
35897;SDS011;21997;47.118;15.346;2023-05-07T06:20:05;4.10;;;2.90;;
35897;SDS011;21997;47.118;15.346;2023-05-07T06:22:31;3.00;;;2.80;;
35897;SDS011;21997;47.118;15.346;2023-05-07T06:24:56;2.60;;;2.30;;
35897;SDS011;21997;47.118;15.346;2023-05-07T06:27:22;2.90;;;2.37;;
35897;SDS011;21997;47.118;15.346;2023-05-07T06:29:48;3.10;;;2.53;;
35897;SDS011;21997;47.118;15.346;2023-05-07T06:32:13;2.63;;;2.23;;
35897;SDS011;21997;47.118;15.346;2023-05-07T06:34:39;2.87;;;2.33;;
35897;SDS011;21997;47.118;15.346;2023-05-07T06:37:05;3.40;;;2.60;;
35897;SDS011;21997;47.118;15.346;2023-05-07T06:39:30;2.70;;;2.47;;
35897;SDS011;21997;47.118;15.346;2023-05-07T06:41:56;2.47;;;2.13;;
35897;SDS011;21997;47.118;15.346;2023-05-07T06:44:21;2.73;;;2.37;;
35897;SDS011;21997;47.118;15.346;2023-05-07T06:46:47;2.20;;;1.97;;
35897;SDS011;21997;47.118;15.346;2023-05-07T06:49:13;2.40;;;2.20;;
35897;SDS011;21997;47.118;15.346;2023-05-07T06:51:38;2.30;;;2.10;;
35897;SDS011;21997;47.118;15.346;2023-05-07T06:54:04;2.30;;;2.10;;
35897;SDS011;21997;47.118;15.346;2023-05-07T06:56:29;2.20;;;2.00;;
35897;SDS011;21997;47.118;15.346;2023-05-07T06:58:55;2.87;;;2.13;;
35897;SDS011;21997;47.118;15.346;2023-05-07T07:01:21;2.93;;;2.50;;
35897;SDS011;21997;47.118;15.346;2023-05-07T07:03:46;2.77;;;2.50;;
35897;SDS011;21997;47.118;15.346;2023-05-07T07:06:12;2.40;;;2.20;;
35897;SDS011;21997;47.118;15.346;2023-05-07T07:08:37;2.47;;;2.27;;
35897;SDS011;21997;47.118;15.346;2023-05-07T07:11:03;3.17;;;2.33;;
35897;SDS011;21997;47.118;15.346;2023-05-07T07:13:29;2.40;;;2.00;;
35897;SDS011;21997;47.118;15.346;2023-05-07T07:15:55;2.90;;;2.20;;
35897;SDS011;21997;47.118;15.346;2023-05-07T07:18:20;2.17;;;2.00;;
35897;SDS011;21997;47.118;15.346;2023-05-07T07:20:46;2.95;;;1.92;;
35897;SDS011;21997;47.118;15.346;2023-05-07T07:23:11;3.30;;;2.20;;
35897;SDS011;21997;47.118;15.346;2023-05-07T07:25:36;2.30;;;2.10;;
35897;SDS011;21997;47.118;15.346;2023-05-07T07:28:02;2.03;;;1.92;;
35897;SDS011;21997;47.118;15.346;2023-05-07T07:30:27;2.50;;;2.30;;
35897;SDS011;21997;47.118;15.346;2023-05-07T07:32:53;2.50;;;2.30;;
35897;SDS011;21997;47.118;15.346;2023-05-07T07:35:19;2.50;;;2.30;;
35897;SDS011;21997;47.118;15.346;2023-05-07T07:37:44;2.40;;;2.10;;
35897;SDS011;21997;47.118;15.346;2023-05-07T07:40:10;2.28;;;2.08;;
35897;SDS011;21997;47.118;15.346;2023-05-07T07:42:36;1.95;;;1.85;;
35897;SDS011;21997;47.118;15.346;2023-05-07T07:45:02;2.28;;;1.95;;
35897;SDS011;21997;47.118;15.346;2023-05-07T07:47:28;3.08;;;1.75;;
35897;SDS011;21997;47.118;15.346;2023-05-07T07:49:53;2.85;;;2.03;;
35897;SDS011;21997;47.118;15.346;2023-05-07T07:52:18;2.00;;;1.73;;
35897;SDS011;21997;47.118;15.346;2023-05-07T07:54:44;1.85;;;1.75;;
35897;SDS011;21997;47.118;15.346;2023-05-07T07:57:09;2.78;;;1.90;;
35897;SDS011;21997;47.118;15.346;2023-05-07T07:59:35;1.60;;;1.50;;
35897;SDS011;21997;47.118;15.346;2023-05-07T08:02:00;1.75;;;1.65;;
35897;SDS011;21997;47.118;15.346;2023-05-07T08:04:26;1.92;;;1.73;;
35897;SDS011;21997;47.118;15.346;2023-05-07T08:06:51;1.90;;;1.70;;
35897;SDS011;21997;47.118;15.346;2023-05-07T08:09:17;2.22;;;2.03;;
35897;SDS011;21997;47.118;15.346;2023-05-07T08:11:42;1.67;;;1.58;;
35897;SDS011;21997;47.118;15.346;2023-05-07T08:14:07;2.20;;;1.80;;
35897;SDS011;21997;47.118;15.346;2023-05-07T08:16:33;1.70;;;1.60;;
35897;SDS011;21997;47.118;15.346;2023-05-07T08:18:58;2.10;;;1.90;;
35897;SDS011;21997;47.118;15.346;2023-05-07T08:21:24;1.67;;;1.58;;
35897;SDS011;21997;47.118;15.346;2023-05-07T08:23:49;2.28;;;2.08;;
35897;SDS011;21997;47.118;15.346;2023-05-07T08:26:14;3.80;;;2.53;;
35897;SDS011;21997;47.118;15.346;2023-05-07T08:28:40;2.40;;;2.20;;
35897;SDS011;21997;47.118;15.346;2023-05-07T08:31:05;2.10;;;1.90;;
35897;SDS011;21997;47.118;15.346;2023-05-07T08:33:31;1.98;;;1.80;;
35897;SDS011;21997;47.118;15.346;2023-05-07T08:35:56;2.10;;;2.00;;
35897;SDS011;21997;47.118;15.346;2023-05-07T08:38:22;2.33;;;2.10;;
35897;SDS011;21997;47.118;15.346;2023-05-07T08:40:47;2.30;;;2.10;;
35897;SDS011;21997;47.118;15.346;2023-05-07T08:43:13;2.53;;;1.90;;
35897;SDS011;21997;47.118;15.346;2023-05-07T08:45:39;2.15;;;2.05;;
35897;SDS011;21997;47.118;15.346;2023-05-07T08:48:08;2.00;;;1.80;;
35897;SDS011;21997;47.118;15.346;2023-05-07T08:50:35;3.03;;;2.28;;
35897;SDS011;21997;47.118;15.346;2023-05-07T08:53:02;2.08;;;1.95;;
35897;SDS011;21997;47.118;15.346;2023-05-07T08:55:28;4.35;;;2.47;;
35897;SDS011;21997;47.118;15.346;2023-05-07T09:09:00;2.45;;;2.25;;
35897;SDS011;21997;47.118;15.346;2023-05-07T09:11:26;3.28;;;1.77;;
35897;SDS011;21997;47.118;15.346;2023-05-07T09:13:55;1.75;;;1.65;;
35897;SDS011;21997;47.118;15.346;2023-05-07T09:16:23;1.80;;;1.63;;
35897;SDS011;21997;47.118;15.346;2023-05-07T09:18:53;3.78;;;1.88;;
35897;SDS011;21997;47.118;15.346;2023-05-07T09:21:20;1.98;;;1.73;;
35897;SDS011;21997;47.118;15.346;2023-05-07T09:23:47;2.15;;;1.92;;
35897;SDS011;21997;47.118;15.346;2023-05-07T09:26:16;3.03;;;1.90;;
35897;SDS011;21997;47.118;15.346;2023-05-07T09:28:41;2.75;;;1.80;;
35897;SDS011;21997;47.118;15.346;2023-05-07T09:31:07;1.70;;;1.60;;
35897;SDS011;21997;47.118;15.346;2023-05-07T09:33:33;1.85;;;1.75;;
35897;SDS011;21997;47.118;15.346;2023-05-07T09:36:01;2.15;;;1.95;;
35897;SDS011;21997;47.118;15.346;2023-05-07T09:38:28;2.00;;;1.90;;
35897;SDS011;21997;47.118;15.346;2023-05-07T09:43:32;2.58;;;1.80;;
35897;SDS011;21997;47.118;15.346;2023-05-07T09:46:01;1.98;;;1.83;;
35897;SDS011;21997;47.118;15.346;2023-05-07T09:48:28;3.50;;;1.52;;
35897;SDS011;21997;47.118;15.346;2023-05-07T09:50:55;1.83;;;1.70;;
35897;SDS011;21997;47.118;15.346;2023-05-07T09:53:23;1.90;;;1.80;;
35897;SDS011;21997;47.118;15.346;2023-05-07T09:55:49;3.33;;;1.45;;
35897;SDS011;21997;47.118;15.346;2023-05-07T09:58:16;1.70;;;1.60;;
35897;SDS011;21997;47.118;15.346;2023-05-07T10:00:43;2.88;;;1.80;;
35897;SDS011;21997;47.118;15.346;2023-05-07T10:03:08;2.25;;;1.40;;
35897;SDS011;21997;47.118;15.346;2023-05-07T10:05:35;3.72;;;1.70;;
35897;SDS011;21997;47.118;15.346;2023-05-07T10:08:01;1.80;;;1.48;;
35897;SDS011;21997;47.118;15.346;2023-05-07T10:10:27;2.08;;;1.58;;
35897;SDS011;21997;47.118;15.346;2023-05-07T10:12:53;1.70;;;1.60;;
35897;SDS011;21997;47.118;15.346;2023-05-07T10:15:19;1.52;;;1.42;;
35897;SDS011;21997;47.118;15.346;2023-05-07T10:17:44;1.73;;;1.63;;
35897;SDS011;21997;47.118;15.346;2023-05-07T10:20:10;1.77;;;1.67;;
35897;SDS011;21997;47.118;15.346;2023-05-07T10:22:40;2.20;;;1.60;;
35897;SDS011;21997;47.118;15.346;2023-05-07T10:25:14;3.60;;;1.98;;
35897;SDS011;21997;47.118;15.346;2023-05-07T10:27:43;1.75;;;1.65;;
35897;SDS011;21997;47.118;15.346;2023-05-07T10:30:15;1.83;;;1.60;;
35897;SDS011;21997;47.118;15.346;2023-05-07T10:32:49;1.50;;;1.40;;
35897;SDS011;21997;47.118;15.346;2023-05-07T10:35:21;1.52;;;1.42;;
35897;SDS011;21997;47.118;15.346;2023-05-07T10:37:49;2.47;;;2.00;;
35897;SDS011;21997;47.118;15.346;2023-05-07T10:40:15;2.88;;;1.73;;
35897;SDS011;21997;47.118;15.346;2023-05-07T10:42:55;1.27;;;1.20;;
35897;SDS011;21997;47.118;15.346;2023-05-07T10:45:25;1.60;;;1.50;;
35897;SDS011;21997;47.118;15.346;2023-05-07T10:48:33;1.65;;;1.55;;
35897;SDS011;21997;47.118;15.346;2023-05-07T10:50:40;1.73;;;1.63;;
35897;SDS011;21997;47.118;15.346;2023-05-07T10:55:46;2.17;;;1.45;;
35897;SDS011;21997;47.118;15.346;2023-05-07T11:00:47;1.60;;;1.27;;
35897;SDS011;21997;47.118;15.346;2023-05-07T11:03:13;1.38;;;1.30;;
35897;SDS011;21997;47.118;15.346;2023-05-07T11:05:39;1.33;;;1.20;;
35897;SDS011;21997;47.118;15.346;2023-05-07T11:08:05;1.48;;;1.30;;
35897;SDS011;21997;47.118;15.346;2023-05-07T11:10:47;1.50;;;1.40;;
35897;SDS011;21997;47.118;15.346;2023-05-07T11:13:14;2.38;;;1.52;;
35897;SDS011;21997;47.118;15.346;2023-05-07T11:15:40;1.90;;;1.40;;
35897;SDS011;21997;47.118;15.346;2023-05-07T11:18:08;1.30;;;1.20;;
35897;SDS011;21997;47.118;15.346;2023-05-07T11:20:53;1.23;;;1.20;;
35897;SDS011;21997;47.118;15.346;2023-05-07T11:26:07;1.63;;;1.52;;
35897;SDS011;21997;47.118;15.346;2023-05-07T11:28:36;2.70;;;1.60;;
35897;SDS011;21997;47.118;15.346;2023-05-07T11:31:05;1.95;;;1.70;;
35897;SDS011;21997;47.118;15.346;2023-05-07T11:33:31;1.60;;;1.50;;
35897;SDS011;21997;47.118;15.346;2023-05-07T11:35:57;1.77;;;1.67;;
35897;SDS011;21997;47.118;15.346;2023-05-07T11:38:23;1.73;;;1.60;;
35897;SDS011;21997;47.118;15.346;2023-05-07T11:40:54;1.65;;;1.45;;
35897;SDS011;21997;47.118;15.346;2023-05-07T11:43:21;2.03;;;1.73;;
35897;SDS011;21997;47.118;15.346;2023-05-07T11:45:47;1.40;;;1.30;;
35897;SDS011;21997;47.118;15.346;2023-05-07T11:48:13;2.72;;;1.35;;
35897;SDS011;21997;47.118;15.346;2023-05-07T11:53:26;1.45;;;1.38;;
35897;SDS011;21997;47.118;15.346;2023-05-07T11:55:52;1.50;;;1.25;;
35897;SDS011;21997;47.118;15.346;2023-05-07T11:58:22;5.20;;;1.63;;
35897;SDS011;21997;47.118;15.346;2023-05-07T12:00:54;1.63;;;1.52;;
35897;SDS011;21997;47.118;15.346;2023-05-07T12:03:20;2.75;;;1.60;;
35897;SDS011;21997;47.118;15.346;2023-05-07T12:05:46;1.65;;;1.02;;
35897;SDS011;21997;47.118;15.346;2023-05-07T12:08:18;2.03;;;1.40;;
35897;SDS011;21997;47.118;15.346;2023-05-07T12:10:46;1.52;;;1.42;;
35897;SDS011;21997;47.118;15.346;2023-05-07T12:13:15;1.60;;;1.50;;
35897;SDS011;21997;47.118;15.346;2023-05-07T12:15:42;1.50;;;1.40;;
35897;SDS011;21997;47.118;15.346;2023-05-07T12:18:07;1.55;;;1.33;;
35897;SDS011;21997;47.118;15.346;2023-05-07T12:20:34;1.30;;;1.20;;
35897;SDS011;21997;47.118;15.346;2023-05-07T12:23:00;1.73;;;1.63;;
35897;SDS011;21997;47.118;15.346;2023-05-07T12:25:26;1.35;;;1.20;;
35897;SDS011;21997;47.118;15.346;2023-05-07T12:27:52;1.30;;;1.20;;
35897;SDS011;21997;47.118;15.346;2023-05-07T12:30:17;1.40;;;1.30;;
35897;SDS011;21997;47.118;15.346;2023-05-07T12:32:44;1.40;;;1.30;;
35897;SDS011;21997;47.118;15.346;2023-05-07T12:35:10;1.45;;;1.35;;
35897;SDS011;21997;47.118;15.346;2023-05-07T12:37:35;1.70;;;1.60;;
35897;SDS011;21997;47.118;15.346;2023-05-07T12:40:04;3.00;;;1.75;;
35897;SDS011;21997;47.118;15.346;2023-05-07T12:42:37;6.72;;;2.75;;
35897;SDS011;21997;47.118;15.346;2023-05-07T12:45:15;7.05;;;3.20;;
35897;SDS011;21997;47.118;15.346;2023-05-07T12:47:44;7.55;;;3.38;;
35897;SDS011;21997;47.118;15.346;2023-05-07T12:50:10;2.50;;;1.67;;
35897;SDS011;21997;47.118;15.346;2023-05-07T12:52:36;3.13;;;2.03;;
35897;SDS011;21997;47.118;15.346;2023-05-07T12:55:05;7.10;;;2.10;;
35897;SDS011;21997;47.118;15.346;2023-05-07T12:57:37;2.33;;;1.60;;
35897;SDS011;21997;47.118;15.346;2023-05-07T13:00:05;4.78;;;2.50;;
35897;SDS011;21997;47.118;15.346;2023-05-07T13:02:33;4.03;;;2.10;;
35897;SDS011;21997;47.118;15.346;2023-05-07T13:05:00;6.75;;;2.47;;
35897;SDS011;21997;47.118;15.346;2023-05-07T13:07:26;3.45;;;1.85;;
35897;SDS011;21997;47.118;15.346;2023-05-07T13:09:51;5.38;;;1.77;;
35897;SDS011;21997;47.118;15.346;2023-05-07T13:12:16;2.63;;;1.60;;
35897;SDS011;21997;47.118;15.346;2023-05-07T13:14:42;3.20;;;1.70;;
35897;SDS011;21997;47.118;15.346;2023-05-07T13:17:07;4.87;;;1.70;;
35897;SDS011;21997;47.118;15.346;2023-05-07T13:19:32;2.57;;;1.70;;
35897;SDS011;21997;47.118;15.346;2023-05-07T13:21:58;5.57;;;1.60;;
35897;SDS011;21997;47.118;15.346;2023-05-07T13:24:23;3.73;;;1.67;;
35897;SDS011;21997;47.118;15.346;2023-05-07T13:26:48;6.43;;;1.27;;
35897;SDS011;21997;47.118;15.346;2023-05-07T13:29:15;1.53;;;1.00;;
35897;SDS011;21997;47.118;15.346;2023-05-07T13:31:40;2.57;;;2.10;;
35897;SDS011;21997;47.118;15.346;2023-05-07T13:34:08;2.07;;;1.27;;
35897;SDS011;21997;47.118;15.346;2023-05-07T13:36:34;2.00;;;1.80;;
35897;SDS011;21997;47.118;15.346;2023-05-07T13:39:02;4.37;;;1.80;;
35897;SDS011;21997;47.118;15.346;2023-05-07T13:41:28;2.87;;;1.80;;
35897;SDS011;21997;47.118;15.346;2023-05-07T13:43:53;2.83;;;1.60;;
35897;SDS011;21997;47.118;15.346;2023-05-07T13:46:19;3.17;;;1.40;;
35897;SDS011;21997;47.118;15.346;2023-05-07T13:48:44;3.33;;;1.73;;
35897;SDS011;21997;47.118;15.346;2023-05-07T13:51:10;4.03;;;2.10;;
35897;SDS011;21997;47.118;15.346;2023-05-07T13:53:35;4.60;;;3.47;;
35897;SDS011;21997;47.118;15.346;2023-05-07T13:56:01;4.13;;;3.47;;
35897;SDS011;21997;47.118;15.346;2023-05-07T13:58:29;8.37;;;2.40;;
35897;SDS011;21997;47.118;15.346;2023-05-07T14:00:55;5.90;;;3.53;;
35897;SDS011;21997;47.118;15.346;2023-05-07T14:03:20;3.57;;;2.37;;
35897;SDS011;21997;47.118;15.346;2023-05-07T14:05:45;3.57;;;1.90;;
35897;SDS011;21997;47.118;15.346;2023-05-07T14:08:11;3.60;;;2.37;;
35897;SDS011;21997;47.118;15.346;2023-05-07T14:10:38;3.50;;;2.57;;
35897;SDS011;21997;47.118;15.346;2023-05-07T14:13:04;3.00;;;1.80;;
35897;SDS011;21997;47.118;15.346;2023-05-07T14:15:29;3.63;;;2.30;;
35897;SDS011;21997;47.118;15.346;2023-05-07T14:17:55;2.10;;;1.87;;
35897;SDS011;21997;47.118;15.346;2023-05-07T14:20:22;2.77;;;2.57;;
35897;SDS011;21997;47.118;15.346;2023-05-07T14:22:47;3.90;;;3.50;;
35897;SDS011;21997;47.118;15.346;2023-05-07T14:25:13;4.63;;;4.03;;
35897;SDS011;21997;47.118;15.346;2023-05-07T14:27:38;5.00;;;4.50;;
35897;SDS011;21997;47.118;15.346;2023-05-07T14:30:04;4.57;;;4.17;;
35897;SDS011;21997;47.118;15.346;2023-05-07T14:32:30;5.40;;;4.10;;
35897;SDS011;21997;47.118;15.346;2023-05-07T14:34:56;4.23;;;3.83;;
35897;SDS011;21997;47.118;15.346;2023-05-07T14:37:22;6.70;;;4.07;;
35897;SDS011;21997;47.118;15.346;2023-05-07T14:39:49;3.97;;;3.47;;
35897;SDS011;21997;47.118;15.346;2023-05-07T14:42:14;3.97;;;3.67;;
35897;SDS011;21997;47.118;15.346;2023-05-07T14:44:39;4.27;;;3.53;;
35897;SDS011;21997;47.118;15.346;2023-05-07T14:47:06;3.50;;;3.20;;
35897;SDS011;21997;47.118;15.346;2023-05-07T14:49:32;3.47;;;3.17;;
35897;SDS011;21997;47.118;15.346;2023-05-07T14:51:58;3.47;;;3.17;;